Terminal Aerodrome Forecast
Issued by NWS

Home | Current Version | Previous Version | Text Only | Print | Product List | Glossary On
Versions: 1 2 3 4 5 6 7 8 9 10 11 12 13 14 15 16 17
851
FTUS43 KMQT 271729
TAFSAW
TAF
KSAW 271729Z 2718/2818 15006KT P6SM VCSH SCT025 OVC040
      TEMPO 2718/2720 BKN025
     FM272000 14007KT P6SM VCSH OVC025
     FM272300 14004KT P6SM VCSH OVC015
     FM280300 13003KT 5SM BR VCSH OVC008
     FM280600 24003KT P6SM BKN003
     FM280700 24003KT P6SM BKN008
     FM280900 24004KT P6SM BKN015
     FM281300 28003KT P6SM SCT015
     FM281400 31003KT P6SM SCT030=

USA.gov is the U.S. government's official web portal to all federal, state and local government web resources and services.